Time;durP1;ratioP1;P1;durP2;ratioP2;P2;SDS_P1;SDS_P2;PMS_P1;PMS_P2;Temp;Humidity;BMP_temperature;BMP_pressure;BME280_temperature;BME280_humidity;BME280_pressure;Samples;Min_cycle;Max_cycle;Signal;HPM_P1;HPM_P2
2023/05/26 00:00:04;;;;;;;27.45;6.32;;;;;;;8.47;90.95;102673.78;5012330;28;20199;-47
2023/05/26 00:02:30;;;;;;;25.08;5.53;;;;;;;8.37;91.30;102670.16;5012437;28;20191;-46
2023/05/26 00:04:59;;;;;;;27.15;6.15;;;;;;;8.21;91.25;102670.16;5012246;28;20570;-50
2023/05/26 00:07:25;;;;;;;26.55;5.55;;;;;;;8.11;91.22;102680.81;5012187;28;20223;-48
2023/05/26 00:09:51;;;;;;;24.95;5.53;;;;;;;8.18;91.47;102675.50;5012476;28;20169;-47
2023/05/26 00:12:17;;;;;;;26.42;5.13;;;;;;;8.14;91.31;102676.38;5012109;28;20244;-52
2023/05/26 00:14:42;;;;;;;26.90;5.57;;;;;;;8.15;91.59;102680.81;5012131;28;20251;-52
2023/05/26 00:17:08;;;;;;;21.08;5.47;;;;;;;8.30;91.87;102679.06;5011935;28;20247;-47
2023/05/26 00:19:35;;;;;;;21.73;5.65;;;;;;;8.21;92.12;102679.97;5012034;28;20165;-47
2023/05/26 00:22:02;;;;;;;29.33;6.10;;;;;;;8.05;92.31;102677.25;5011982;28;20177;-52
2023/05/26 00:24:27;;;;;;;27.48;5.50;;;;;;;7.99;92.57;102685.25;5011923;28;20292;-48
2023/05/26 00:26:53;;;;;;;27.35;5.50;;;;;;;7.90;93.40;102685.22;5012107;28;20259;-50
2023/05/26 00:29:19;;;;;;;27.70;5.75;;;;;;;7.94;93.51;102681.69;5012037;28;20208;-46
2023/05/26 00:31:45;;;;;;;24.33;5.78;;;;;;;7.87;94.03;102684.31;5010385;28;20196;-48
2023/05/26 00:34:10;;;;;;;23.65;5.97;;;;;;;7.91;94.38;102679.00;5011762;28;20196;-46
2023/05/26 00:36:37;;;;;;;28.42;5.30;;;;;;;7.96;94.12;102687.00;5012139;28;20176;-46
2023/05/26 00:39:03;;;;;;;22.50;5.80;;;;;;;7.91;93.95;102689.66;5011594;28;20180;-46
2023/05/26 00:41:29;;;;;;;26.73;6.65;;;;;;;7.81;94.00;102688.78;5010525;28;20542;-46
2023/05/26 00:43:55;;;;;;;30.35;5.47;;;;;;;7.73;94.00;102693.19;5011469;28;20546;-49
2023/05/26 00:46:20;;;;;;;27.20;6.03;;;;;;;7.74;93.89;102694.97;5010540;28;20195;-46
2023/05/26 00:48:46;;;;;;;34.35;6.05;;;;;;;7.68;94.01;102692.28;5011484;28;20307;-50
2023/05/26 00:51:12;;;;;;;25.52;5.65;;;;;;;7.65;94.33;102692.25;5011325;28;20666;-46
2023/05/26 00:53:42;;;;;;;25.05;5.95;;;;;;;7.63;95.07;102710.94;5011483;28;20608;-51
2023/05/26 00:56:09;;;;;;;26.45;5.90;;;;;;;7.74;95.37;102702.06;5010134;28;20209;-45
2023/05/26 00:58:35;;;;;;;25.17;5.35;;;;;;;7.74;95.06;102699.41;5011279;28;20529;-47
2023/05/26 01:01:01;;;;;;;27.23;5.30;;;;;;;7.71;95.26;102708.28;5011469;28;20169;-52
2023/05/26 01:03:27;;;;;;;25.77;5.57;;;;;;;7.71;95.29;102700.28;5011305;28;20184;-53
2023/05/26 01:05:54;;;;;;;26.58;5.90;;;;;;;7.65;95.43;102713.59;5010106;28;20204;-48
2023/05/26 01:08:21;;;;;;;24.83;5.55;;;;;;;7.48;95.75;102712.63;5009738;28;20283;-52
2023/05/26 01:10:47;;;;;;;27.58;5.93;;;;;;;7.55;96.16;102703.78;5011263;28;20251;-47
2023/05/26 01:13:27;;;;;;;26.27;5.35;;;;;;;7.49;96.31;102709.09;5011290;28;20160;-48
2023/05/26 01:16:00;;;;;;;36.75;5.85;;;;;;;7.45;96.53;102702.84;5011004;28;20291;-46
2023/05/26 01:18:40;;;;;;;23.80;6.18;;;;;;;7.46;96.92;102695.75;5011187;28;20185;-46
2023/05/26 01:21:12;;;;;;;27.92;5.90;;;;;;;7.42;97.18;102708.16;5010956;28;20227;-46
2023/05/26 01:23:59;;;;;;;31.10;5.65;;;;;;;7.42;97.35;102702.84;5009400;28;20211;-50
2023/05/26 01:26:51;;;;;;;36.03;6.07;;;;;;;7.38;97.93;102707.25;5009763;28;20193;-48
2023/05/26 01:29:22;;;;;;;28.13;5.45;;;;;;;7.41;98.52;102709.03;5008816;28;20196;-46
2023/05/26 01:31:47;;;;;;;26.58;5.88;;;;;;;7.38;98.38;102723.25;5009656;28;20169;-46
2023/05/26 01:34:13;;;;;;;25.02;6.00;;;;;;;7.33;98.45;102721.47;5009192;28;20189;-47
2023/05/26 01:36:38;;;;;;;29.83;5.78;;;;;;;7.35;99.07;102715.25;5010862;28;20525;-48
2023/05/26 01:39:07;;;;;;;26.45;5.68;;;;;;;7.39;98.84;102709.06;5009369;28;20160;-47
2023/05/26 01:41:37;;;;;;;27.30;6.60;;;;;;;7.38;99.00;102717.91;5010681;28;20172;-51
2023/05/26 01:44:08;;;;;;;26.75;6.13;;;;;;;7.41;99.31;102714.38;5010700;28;20311;-49
2023/05/26 01:46:50;;;;;;;22.55;5.68;;;;;;;7.44;99.42;102727.75;5009174;28;20666;-46
2023/05/26 01:49:19;;;;;;;29.98;6.78;;;;;;;7.38;99.80;102717.91;5009302;28;20212;-45
2023/05/26 01:51:59;;;;;;;29.40;5.63;;;;;;;7.51;99.75;102723.31;4993400;28;20185;-44
2023/05/26 01:54:28;;;;;;;28.75;6.53;;;;;;;7.50;99.86;102718.88;5009309;28;20200;-46
2023/05/26 01:56:56;;;;;;;27.70;5.68;;;;;;;7.21;100.00;102730.25;5009301;28;20172;-46
2023/05/26 01:59:24;;;;;;;29.98;6.60;;;;;;;7.13;100.00;102732.00;5009078;28;20560;-47
2023/05/26 02:01:50;;;;;;;30.15;6.20;;;;;;;7.21;100.00;102722.25;5010449;28;20165;-46
2023/05/26 02:04:15;;;;;;;27.70;6.18;;;;;;;7.16;100.00;102727.56;5010291;28;20242;-52
2023/05/26 02:06:41;;;;;;;29.58;6.13;;;;;;;7.14;100.00;102723.13;5009005;28;20202;-46
2023/05/26 02:09:07;;;;;;;29.63;6.53;;;;;;;7.15;100.00;102724.88;5009045;28;20188;-45
2023/05/26 02:11:33;;;;;;;29.10;6.30;;;;;;;7.06;100.00;102733.72;5009111;28;20176;-48
2023/05/26 02:13:59;;;;;;;40.92;7.22;;;;;;;7.12;100.00;102730.22;5008707;28;20299;-45
2023/05/26 02:16:26;;;;;;;28.60;6.38;;;;;;;7.14;100.00;102739.09;5010774;28;20247;-48
2023/05/26 02:18:52;;;;;;;25.33;5.18;;;;;;;7.15;100.00;102735.53;5010172;28;20172;-48
2023/05/26 02:21:18;;;;;;;27.88;5.97;;;;;;;7.05;100.00;102731.06;5010298;28;20190;-45
2023/05/26 02:23:44;;;;;;;31.20;6.20;;;;;;;6.99;100.00;102735.44;5008926;28;20256;-50
2023/05/26 02:26:10;;;;;;;27.15;5.97;;;;;;;6.97;100.00;102734.53;5010145;28;20488;-46
2023/05/26 02:28:37;;;;;;;29.15;6.53;;;;;;;7.03;100.00;102736.38;5010140;28;20262;-45
2023/05/26 02:31:03;;;;;;;34.83;6.55;;;;;;;6.83;100.00;102744.22;5008717;28;20176;-48
2023/05/26 02:33:29;;;;;;;29.35;6.15;;;;;;;7.04;100.00;102738.16;5008785;28;20172;-49
2023/05/26 02:35:55;;;;;;;28.55;5.97;;;;;;;7.04;100.00;102743.50;5009980;28;20562;-52
2023/05/26 02:38:20;;;;;;;25.08;5.60;;;;;;;7.00;100.00;102752.34;5008514;28;20224;-47
2023/05/26 02:40:46;;;;;;;32.53;6.13;;;;;;;7.05;100.00;102750.59;5009692;28;20712;-46
2023/05/26 02:43:11;;;;;;;35.75;6.38;;;;;;;7.06;100.00;102755.03;5013986;28;20706;-49
2023/05/26 02:45:39;;;;;;;26.40;6.25;;;;;;;7.04;100.00;102751.50;5013832;28;20200;-48
2023/05/26 02:48:04;;;;;;;29.50;6.70;;;;;;;6.93;100.00;102746.06;5013642;28;20193;-48
2023/05/26 02:50:30;;;;;;;37.58;7.05;;;;;;;6.87;100.00;102758.47;5013803;28;20226;-48
2023/05/26 02:52:55;;;;;;;28.38;6.28;;;;;;;6.92;100.00;102748.72;5012499;28;20204;-51
2023/05/26 02:55:21;;;;;;;25.90;6.03;;;;;;;6.92;100.00;102768.25;5012506;28;20274;-46
2023/05/26 02:57:47;;;;;;;38.42;6.32;;;;;;;6.97;100.00;102755.84;5013556;28;20164;-46
2023/05/26 03:00:13;;;;;;;29.85;6.00;;;;;;;6.80;100.00;102749.53;5013170;28;20171;-49
2023/05/26 03:02:39;;;;;;;27.58;6.57;;;;;;;6.99;100.00;102750.53;5011842;28;20172;-48
2023/05/26 03:05:06;;;;;;;37.90;6.63;;;;;;;6.83;100.00;102751.31;5011613;28;20310;-45
2023/05/26 03:07:31;;;;;;;26.48;6.10;;;;;;;6.96;100.00;102759.41;5010897;28;20172;-47
2023/05/26 03:09:58;;;;;;;30.98;6.07;;;;;;;6.93;100.00;102756.75;5011429;28;20548;-53
2023/05/26 03:12:24;;;;;;;38.63;7.10;;;;;;;6.88;100.00;102755.78;5013219;28;20237;-46
2023/05/26 03:14:50;;;;;;;32.30;6.68;;;;;;;6.92;100.00;102764.72;5011741;28;20774;-47
2023/05/26 03:17:16;;;;;;;27.90;6.47;;;;;;;6.86;100.00;102759.31;5011474;28;20647;-46
2023/05/26 03:19:42;;;;;;;21.52;5.70;;;;;;;6.97;100.00;102755.84;5010763;28;20173;-48
2023/05/26 03:22:08;;;;;;;26.65;6.40;;;;;;;6.84;100.00;102758.41;5012663;28;20168;-46
2023/05/26 03:24:34;;;;;;;30.30;6.13;;;;;;;6.95;100.00;102765.63;5011739;28;20267;-48
2023/05/26 03:27:01;;;;;;;34.25;6.35;;;;;;;6.90;100.00;102769.13;5011448;28;20181;-46
2023/05/26 03:29:29;;;;;;;40.10;7.35;;;;;;;6.95;100.00;102770.06;5011101;28;20220;-47
2023/05/26 03:31:55;;;;;;;30.83;6.35;;;;;;;6.88;100.00;102761.13;5012781;28;20172;-48
2023/05/26 03:34:23;;;;;;;33.13;6.00;;;;;;;6.91;100.00;102766.50;5011066;28;20284;-53
2023/05/26 03:36:49;;;;;;;24.88;5.65;;;;;;;6.85;100.00;102765.56;5012666;28;20171;-47
2023/05/26 03:39:25;;;;;;;28.65;6.25;;;;;;;6.91;100.00;102769.16;5012395;28;20145;-45
2023/05/26 03:41:54;;;;;;;37.50;6.10;;;;;;;6.91;100.00;102773.56;5011015;28;20254;-52
2023/05/26 03:44:23;;;;;;;26.58;5.70;;;;;;;6.92;100.00;102770.03;5011084;28;20773;-48
2023/05/26 03:46:48;;;;;;;24.73;5.90;;;;;;;6.90;100.00;102767.34;5012307;28;20576;-49
2023/05/26 03:49:15;;;;;;;28.13;5.97;;;;;;;6.90;100.00;102764.69;5010778;28;20246;-49
2023/05/26 03:51:40;;;;;;;33.83;6.00;;;;;;;6.90;100.00;102777.13;5012348;28;20173;-53
2023/05/26 03:54:06;;;;;;;26.63;6.30;;;;;;;6.96;100.00;102770.06;5011171;28;20185;-47
2023/05/26 03:56:32;;;;;;;26.15;5.70;;;;;;;6.90;100.00;102767.34;5012295;28;20173;-46
2023/05/26 03:58:58;;;;;;;32.25;6.13;;;;;;;6.96;100.00;102766.53;5010995;28;20165;-46
2023/05/26 04:01:25;;;;;;;24.95;5.60;;;;;;;7.06;100.00;102768.34;5010795;28;20208;-48
2023/05/26 04:03:51;;;;;;;30.58;6.57;;;;;;;7.03;100.00;102762.13;5011058;28;20172;-53
2023/05/26 04:06:19;;;;;;;29.48;6.00;;;;;;;7.07;100.00;102758.63;5010864;28;20223;-48
2023/05/26 04:08:47;;;;;;;28.15;6.03;;;;;;;7.10;100.00;102754.16;4994597;28;20227;-47
2023/05/26 04:11:13;;;;;;;28.45;6.57;;;;;;;7.19;100.00;102756.94;5012269;28;20161;-47
2023/05/26 04:13:40;;;;;;;27.85;5.93;;;;;;;7.17;100.00;102744.44;5012081;28;20643;-48
2023/05/26 04:16:06;;;;;;;26.75;5.90;;;;;;;7.17;100.00;102760.44;5012001;28;20172;-53
2023/05/26 04:18:33;;;;;;;31.63;7.07;;;;;;;7.17;100.00;102760.44;4994784;28;20165;-45
2023/05/26 04:20:59;;;;;;;28.48;6.55;;;;;;;7.32;100.00;102765.88;5011847;28;20161;-48
2023/05/26 04:23:25;;;;;;;28.38;6.20;;;;;;;7.32;100.00;102760.53;5012100;28;20682;-47
2023/05/26 04:25:50;;;;;;;24.20;5.32;;;;;;;7.48;100.00;102773.97;5010613;28;20350;-48
2023/05/26 04:28:38;;;;;;;33.97;6.43;;;;;;;7.45;100.00;102766.84;4997357;28;20684;-47
2023/05/26 04:31:41;;;;;;;28.77;5.70;;;;;;;7.50;100.00;102769.53;5003817;28;20189;-47
2023/05/26 04:34:21;;;;;;;29.50;5.82;;;;;;;7.62;100.00;102774.94;5010177;28;20199;-47
2023/05/26 04:36:55;;;;;;;33.83;7.55;;;;;;;7.69;100.00;102779.44;5011866;28;20168;-48
2023/05/26 04:39:21;;;;;;;25.05;5.13;;;;;;;7.80;100.00;102777.69;5011576;28;20307;-47
2023/05/26 04:41:46;;;;;;;28.38;5.78;;;;;;;7.87;100.00;102775.97;5010466;28;20210;-50
2023/05/26 04:44:12;;;;;;;25.85;5.70;;;;;;;7.91;100.00;102772.41;5010235;28;20192;-46
2023/05/26 04:46:38;;;;;;;24.55;5.72;;;;;;;7.87;100.00;102777.72;5010211;28;20453;-46
2023/05/26 04:49:04;;;;;;;23.45;6.22;;;;;;;8.05;100.00;102770.69;5010294;28;20280;-47
2023/05/26 04:51:32;;;;;;;25.98;5.75;;;;;;;8.15;100.00;102774.28;5009962;28;20204;-48
2023/05/26 04:53:58;;;;;;;24.95;5.80;;;;;;;8.15;100.00;102779.63;5010259;28;20172;-46
2023/05/26 04:56:26;;;;;;;29.50;6.00;;;;;;;8.19;100.00;102777.84;5010070;28;20168;-47
2023/05/26 04:58:55;;;;;;;33.17;6.25;;;;;;;8.31;100.00;102782.31;5009773;28;20172;-49
2023/05/26 05:01:21;;;;;;;23.70;5.32;;;;;;;8.22;100.00;102781.44;5011270;28;20299;-50
2023/05/26 05:04:07;;;;;;;25.20;5.53;;;;;;;8.41;100.00;102777.03;5002760;28;20212;-48
2023/05/26 05:06:35;;;;;;;19.30;4.93;;;;;;;8.55;100.00;102777.09;5010018;28;20189;-47
2023/05/26 05:09:02;;;;;;;26.42;5.22;;;;;;;8.55;99.58;102779.75;5009786;28;20204;-49
2023/05/26 05:11:28;;;;;;;35.28;5.95;;;;;;;8.70;98.41;102773.53;5009587;28;20540;-48
2023/05/26 05:13:55;;;;;;;30.20;5.95;;;;;;;8.72;97.65;102786.91;5009661;28;20177;-52
2023/05/26 05:16:21;;;;;;;25.17;5.65;;;;;;;8.62;97.02;102786.91;5009767;28;20201;-48
2023/05/26 05:18:46;;;;;;;22.13;5.72;;;;;;;8.70;96.39;102777.97;5009643;28;20706;-49
2023/05/26 05:21:12;;;;;;;23.65;5.72;;;;;;;8.89;96.08;102781.56;5011041;28;20188;-49
2023/05/26 05:23:37;;;;;;;27.13;5.35;;;;;;;9.13;95.54;102781.56;5009337;28;20623;-48
2023/05/26 05:26:04;;;;;;;27.73;5.38;;;;;;;9.29;94.83;102779.75;5009476;28;20192;-48
2023/05/26 05:28:30;;;;;;;27.08;5.50;;;;;;;9.17;93.47;102777.09;5009371;28;20192;-47
2023/05/26 05:31:04;;;;;;;21.45;4.82;;;;;;;9.30;92.73;102778.88;5009290;28;20306;-48
2023/05/26 05:33:31;;;;;;;26.77;5.70;;;;;;;9.32;91.90;102777.09;5009676;28;20169;-49
2023/05/26 05:35:57;;;;;;;33.67;5.97;;;;;;;9.12;91.40;102762.81;5010296;28;20620;-53
2023/05/26 05:38:22;;;;;;;20.60;5.05;;;;;;;9.33;91.22;102769.94;5009104;28;20168;-48
2023/05/26 05:40:48;;;;;;;24.58;5.95;;;;;;;9.55;90.68;102776.13;5008862;28;20173;-48
2023/05/26 05:43:14;;;;;;;27.65;5.00;;;;;;;9.52;90.00;102770.81;5008590;28;20173;-48
2023/05/26 05:45:40;;;;;;;25.70;5.30;;;;;;;9.57;89.49;102783.25;5008629;28;20201;-50
2023/05/26 05:48:05;;;;;;;24.90;5.43;;;;;;;9.27;88.72;102784.19;5010269;28;20196;-48
2023/05/26 05:50:35;;;;;;;23.27;4.85;;;;;;;9.54;88.69;102793.09;5008290;28;20230;-51
2023/05/26 05:53:00;;;;;;;24.90;4.80;;;;;;;9.63;88.23;102780.56;5008400;28;20180;-49
2023/05/26 05:55:26;;;;;;;21.75;4.90;;;;;;;9.70;87.35;102787.66;5008602;28;20201;-52
2023/05/26 05:57:53;;;;;;;26.75;4.95;;;;;;;9.81;87.07;102787.63;5009059;28;20183;-48
2023/05/26 06:00:19;;;;;;;23.27;4.80;;;;;;;9.59;86.92;102792.16;5008883;28;20196;-48
2023/05/26 06:02:44;;;;;;;22.45;5.15;;;;;;;9.99;86.89;102786.69;5010175;28;20223;-49
2023/05/26 06:05:10;;;;;;;28.65;4.93;;;;;;;10.13;86.72;102789.31;5008998;28;20597;-50
2023/05/26 06:07:35;;;;;;;24.45;5.25;;;;;;;10.23;86.09;102792.81;5010053;28;20364;-47
2023/05/26 06:10:01;;;;;;;24.73;5.43;;;;;;;10.38;85.10;102779.38;5010235;28;20169;-47
2023/05/26 06:12:26;;;;;;;19.73;5.10;;;;;;;10.55;84.44;102781.94;5007975;28;20275;-46
2023/05/26 06:14:52;;;;;;;21.20;4.45;;;;;;;10.95;83.75;102791.47;5009164;28;20692;-47
2023/05/26 06:17:17;;;;;;;25.13;5.57;;;;;;;10.93;83.47;102775.38;5011720;28;20223;-49
2023/05/26 06:19:43;;;;;;;27.10;5.30;;;;;;;10.54;82.44;102784.63;5013046;28;20187;-50
2023/05/26 06:22:08;;;;;;;25.33;4.53;;;;;;;11.02;81.75;102783.38;5012113;28;20173;-51
2023/05/26 06:24:34;;;;;;;20.85;4.70;;;;;;;10.99;81.42;102778.03;5011597;28;20231;-50
2023/05/26 06:27:00;;;;;;;20.50;4.50;;;;;;;11.06;80.72;102766.34;5012163;28;20177;-50
2023/05/26 06:29:26;;;;;;;24.02;4.72;;;;;;;10.80;79.82;102769.25;5013770;28;20200;-50
2023/05/26 06:31:52;;;;;;;22.92;4.82;;;;;;;10.79;80.66;102786.22;5011361;28;20191;-50
2023/05/26 06:34:19;;;;;;;19.30;4.55;;;;;;;11.18;79.85;102770.72;5010780;28;20232;-48
2023/05/26 06:36:44;;;;;;;24.25;4.70;;;;;;;11.01;77.80;102762.81;5012243;28;20215;-50
2023/05/26 06:39:10;;;;;;;21.65;4.45;;;;;;;11.11;77.78;102772.56;5010256;28;20207;-50
2023/05/26 06:41:35;;;;;;;19.48;4.43;;;;;;;11.34;77.75;102771.44;5010961;28;20225;-50
2023/05/26 06:44:02;;;;;;;19.85;5.28;;;;;;;11.67;76.92;102767.47;5010283;28;20208;-49
2023/05/26 06:46:30;;;;;;;20.77;5.13;;;;;;;11.46;76.32;102767.75;5011986;28;20212;-52
2023/05/26 06:48:56;;;;;;;20.25;4.60;;;;;;;11.49;75.72;102757.84;5008575;28;20437;-50
2023/05/26 06:51:25;;;;;;;20.13;4.47;;;;;;;11.44;75.50;102770.44;5011882;28;20193;-45
2023/05/26 06:53:52;;;;;;;18.42;4.30;;;;;;;11.52;74.89;102763.22;5012922;28;20526;-47
2023/05/26 06:56:17;;;;;;;19.08;4.88;;;;;;;11.58;75.08;102761.34;5013864;28;20196;-47
2023/05/26 06:58:43;;;;;;;18.25;4.55;;;;;;;11.65;74.32;102771.09;5012713;28;20662;-47
2023/05/26 07:01:08;;;;;;;20.58;4.97;;;;;;;11.88;74.14;102752.94;5014052;28;20632;-46
2023/05/26 07:03:36;;;;;;;21.75;5.15;;;;;;;12.03;74.06;102762.63;5012611;28;20164;-46
2023/05/26 07:06:02;;;;;;;12.20;4.32;;;;;;;11.57;73.48;102759.56;5013582;28;20211;-45
2023/05/26 07:08:30;;;;;;;21.15;4.70;;;;;;;12.19;73.44;102762.41;5013064;28;20207;-46
2023/05/26 07:11:14;;;;;;;22.88;5.38;;;;;;;12.30;72.59;102764.03;5012469;28;20184;-45
2023/05/26 07:13:39;;;;;;;16.60;5.47;;;;;;;12.49;71.94;102761.94;5012655;28;20185;-48
2023/05/26 07:16:05;;;;;;;18.25;4.55;;;;;;;12.71;70.67;102765.19;5013501;28;20189;-46
2023/05/26 07:18:30;;;;;;;16.67;3.75;;;;;;;11.61;70.31;102746.09;5012652;28;20181;-44
2023/05/26 07:20:56;;;;;;;21.70;4.38;;;;;;;12.17;70.23;102748.97;5011249;28;20307;-45
2023/05/26 07:23:22;;;;;;;20.00;4.13;;;;;;;12.36;70.18;102755.00;5010380;28;20173;-44
2023/05/26 07:25:47;;;;;;;15.75;4.20;;;;;;;12.36;69.41;102752.31;5010484;28;20596;-45
2023/05/26 07:28:13;;;;;;;17.10;4.28;;;;;;;13.06;69.78;102754.75;5009810;28;20694;-48
2023/05/26 07:30:39;;;;;;;14.45;4.28;;;;;;;13.01;68.91;102754.84;5012066;28;20184;-47
2023/05/26 07:33:09;;;;;;;19.75;4.22;;;;;;;13.01;67.99;102738.69;5010055;28;20682;-47
2023/05/26 07:35:34;;;;;;;19.90;4.53;;;;;;;13.25;67.74;102747.22;5010525;28;20200;-45
2023/05/26 07:38:03;;;;;;;16.98;4.47;;;;;;;13.30;67.88;102751.66;5010852;28;20259;-44
2023/05/26 07:40:34;;;;;;;16.80;4.93;;;;;;;12.38;68.30;102753.16;5008653;28;20187;-46
2023/05/26 07:42:59;;;;;;;14.07;4.53;;;;;;;12.31;68.52;102752.38;5011199;28;20215;-47
2023/05/26 07:45:25;;;;;;;16.83;4.10;;;;;;;12.07;68.12;102737.50;5011230;28;20212;-44
2023/05/26 07:47:51;;;;;;;19.98;4.70;;;;;;;12.30;67.87;102744.31;5010894;28;20698;-43
2023/05/26 07:50:16;;;;;;;16.00;4.28;;;;;;;12.58;67.67;102744.78;5011407;28;20184;-45
2023/05/26 07:52:42;;;;;;;16.30;4.53;;;;;;;13.53;67.07;102740.41;5011365;28;20188;-46
2023/05/26 07:55:07;;;;;;;16.23;4.38;;;;;;;13.51;64.52;102723.44;5011209;28;20263;-44
2023/05/26 07:57:33;;;;;;;11.65;3.30;;;;;;;12.97;63.75;102707.38;5011398;28;20595;-45
2023/05/26 07:59:59;;;;;;;10.68;3.50;;;;;;;13.10;62.87;102698.16;5010981;28;20185;-46
2023/05/26 08:02:24;;;;;;;8.65;3.45;;;;;;;13.61;62.47;102702.56;5011405;28;20176;-44
2023/05/26 08:04:50;;;;;;;10.70;3.40;;;;;;;14.03;61.59;102702.53;5009816;28;20691;-46
2023/05/26 08:07:16;;;;;;;10.63;3.72;;;;;;;14.40;60.59;102689.06;5011006;28;20212;-44
2023/05/26 08:09:41;;;;;;;14.80;3.97;;;;;;;14.61;59.82;102674.22;5010878;28;20299;-44
2023/05/26 08:12:07;;;;;;;21.02;4.15;;;;;;;14.61;58.95;102668.81;5010904;28;20180;-46
2023/05/26 08:14:33;;;;;;;13.95;3.53;;;;;;;14.31;60.09;102670.44;5010857;28;20339;-46
2023/05/26 08:16:58;;;;;;;10.93;3.35;;;;;;;13.27;59.96;102670.00;5010920;28;20616;-42
2023/05/26 08:19:24;;;;;;;10.35;3.92;;;;;;;13.54;59.90;102682.06;5010754;28;20177;-43
2023/05/26 08:21:49;;;;;;;12.35;3.30;;;;;;;13.64;61.74;102715.06;5011009;28;20177;-45
2023/05/26 08:24:15;;;;;;;16.48;4.47;;;;;;;14.15;62.43;102713.06;5010450;28;20255;-46
2023/05/26 08:26:40;;;;;;;14.60;4.53;;;;;;;13.56;61.80;102705.34;5010991;28;20180;-47
2023/05/26 08:29:06;;;;;;;13.50;3.78;;;;;;;14.04;62.20;102703.41;5010669;28;20216;-47
2023/05/26 08:31:31;;;;;;;16.52;4.47;;;;;;;14.34;61.09;102694.66;5010597;28;20185;-47
2023/05/26 08:33:57;;;;;;;12.88;4.22;;;;;;;13.84;60.87;102677.84;5009993;28;20209;-46
2023/05/26 08:36:22;;;;;;;16.30;4.55;;;;;;;14.26;61.33;102698.44;5010819;28;20306;-49
2023/05/26 08:38:48;;;;;;;14.05;4.07;;;;;;;14.63;60.40;102688.56;5010405;28;20256;-50
2023/05/26 08:41:18;;;;;;;14.70;4.05;;;;;;;13.60;60.38;102677.44;5010806;28;20738;-51
2023/05/26 08:43:52;;;;;;;18.63;4.32;;;;;;;14.48;60.87;102694.28;5010129;28;20185;-48
2023/05/26 08:46:18;;;;;;;16.52;4.32;;;;;;;14.19;60.61;102682.41;5008839;28;20202;-48
2023/05/26 08:48:44;;;;;;;12.25;3.90;;;;;;;14.94;60.58;102682.34;5010041;28;20193;-51
2023/05/26 08:51:11;;;;;;;14.63;4.30;;;;;;;14.74;60.88;102693.66;5010245;28;20596;-51
2023/05/26 08:53:39;;;;;;;15.38;4.55;;;;;;;14.00;62.02;102702.63;5008004;28;20636;-50
2023/05/26 08:56:06;;;;;;;11.77;4.07;;;;;;;13.59;62.52;102709.78;5007815;28;20634;-49
2023/05/26 08:58:33;;;;;;;13.00;4.35;;;;;;;13.51;63.11;102726.13;5009336;28;20193;-49
2023/05/26 09:01:00;;;;;;;15.25;4.32;;;;;;;13.33;63.39;102726.47;5009007;28;20709;-49
2023/05/26 09:03:26;;;;;;;12.90;3.78;;;;;;;13.55;63.09;102725.09;5007542;28;20560;-50
2023/05/26 09:05:51;;;;;;;18.23;4.28;;;;;;;13.19;63.61;102734.78;5008705;28;20212;-51
2023/05/26 09:08:16;;;;;;;17.48;4.80;;;;;;;13.78;64.33;102751.59;5010363;28;20193;-49
2023/05/26 09:10:42;;;;;;;11.95;4.68;;;;;;;14.01;63.08;102734.03;5010312;28;20520;-47
2023/05/26 09:13:10;;;;;;;12.63;4.32;;;;;;;13.20;62.65;102717.69;5009157;28;20176;-47
2023/05/26 09:15:37;;;;;;;14.90;4.32;;;;;;;13.97;63.48;102735.94;5010664;28;20638;-48
2023/05/26 09:18:12;;;;;;;13.95;4.40;;;;;;;14.22;62.44;102727.28;5009425;28;20607;-47
2023/05/26 09:20:40;;;;;;;14.25;4.40;;;;;;;14.12;62.54;102726.59;5004492;28;20188;-49
2023/05/26 09:23:05;;;;;;;17.00;4.57;;;;;;;13.37;62.81;102730.88;5010607;28;20191;-49
2023/05/26 09:25:35;;;;;;;18.75;4.65;;;;;;;13.28;63.26;102749.88;5010877;28;20205;-46
2023/05/26 09:28:07;;;;;;;14.77;5.18;;;;;;;12.73;63.62;102732.91;5010676;28;20251;-48
2023/05/26 09:30:37;;;;;;;17.33;4.63;;;;;;;13.23;64.11;102731.13;5010570;28;20184;-46
2023/05/26 09:33:05;;;;;;;21.33;4.80;;;;;;;12.85;64.59;102742.56;5009586;28;20259;-45
2023/05/26 09:35:38;;;;;;;21.63;4.93;;;;;;;13.17;64.46;102763.53;5010569;28;20205;-48
2023/05/26 09:38:05;;;;;;;14.13;4.15;;;;;;;13.28;64.21;102766.03;4999132;28;20173;-46
2023/05/26 09:40:31;;;;;;;16.67;4.50;;;;;;;12.79;64.71;102754.31;5010635;28;20223;-50
2023/05/26 09:42:56;;;;;;;14.73;4.22;;;;;;;13.11;64.27;102755.56;5010775;28;20215;-46
2023/05/26 09:45:22;;;;;;;14.20;4.13;;;;;;;12.96;63.68;102735.19;5010599;28;20224;-51
2023/05/26 09:47:57;;;;;;;17.38;4.22;;;;;;;13.54;64.10;102750.28;5009195;28;20184;-47
2023/05/26 09:50:24;;;;;;;15.82;4.85;;;;;;;13.70;64.06;102758.94;5009830;28;20180;-47
2023/05/26 09:52:50;;;;;;;19.88;4.43;;;;;;;13.15;64.53;102763.53;5010325;28;20203;-46
2023/05/26 09:55:16;;;;;;;16.13;4.57;;;;;;;13.03;64.89;102760.19;5009919;28;20279;-45
2023/05/26 09:57:45;;;;;;;14.43;4.10;;;;;;;13.81;64.24;102751.50;5010324;28;20185;-46
2023/05/26 10:00:14;;;;;;;12.30;3.70;;;;;;;13.92;62.73;102732.41;5010402;28;20169;-47
2023/05/26 10:02:40;;;;;;;11.57;3.63;;;;;;;14.49;61.77;102727.53;5010144;28;20201;-46
2023/05/26 10:05:07;;;;;;;14.63;3.75;;;;;;;13.32;62.25;102730.09;5010290;28;20297;-48
2023/05/26 10:07:33;;;;;;;12.15;3.65;;;;;;;13.04;63.69;102743.13;5010072;28;20196;-46
2023/05/26 10:10:01;;;;;;;14.90;4.07;;;;;;;12.87;64.26;102755.06;5008593;28;20216;-45
2023/05/26 10:12:34;;;;;;;12.75;3.97;;;;;;;13.47;64.68;102745.94;5010248;28;20211;-46
2023/05/26 10:15:02;;;;;;;14.07;4.20;;;;;;;13.55;64.56;102743.09;5009936;28;20305;-48
2023/05/26 10:17:28;;;;;;;13.57;4.00;;;;;;;13.93;64.31;102753.06;5010142;28;20187;-47
2023/05/26 10:19:55;;;;;;;13.32;3.80;;;;;;;13.56;64.55;102748.44;5010093;28;20164;-46
2023/05/26 10:22:58;;;;;;;18.35;4.05;;;;;;;13.42;64.31;102757.72;5008640;28;20259;-47
2023/05/26 10:25:46;;;;;;;14.25;3.60;;;;;;;13.74;64.48;102751.69;5010124;28;20595;-46
2023/05/26 10:28:30;;;;;;;9.23;3.10;;;;;;;14.21;63.11;102730.88;5009884;28;20206;-48
2023/05/26 10:31:01;;;;;;;16.55;3.90;;;;;;;14.11;62.08;102732.03;5010033;28;20533;-49
2023/05/26 10:33:44;;;;;;;13.18;3.70;;;;;;;14.40;61.87;102739.44;5009928;28;20287;-49
2023/05/26 10:36:15;;;;;;;12.00;3.85;;;;;;;13.66;63.32;102742.88;5009920;28;20161;-47
2023/05/26 10:38:50;;;;;;;16.65;4.45;;;;;;;13.95;62.92;102737.75;5010141;28;20534;-49
2023/05/26 10:41:34;;;;;;;14.45;4.15;;;;;;;14.40;62.97;102742.13;4994535;28;20259;-48
2023/05/26 10:44:00;;;;;;;15.65;4.47;;;;;;;14.43;62.20;102739.38;4992641;28;20268;-46
2023/05/26 10:46:46;;;;;;;14.75;3.63;;;;;;;14.09;61.57;102723.09;5008438;28;20180;-47
2023/05/26 10:49:22;;;;;;;16.17;4.00;;;;;;;13.76;61.90;102728.31;4995320;28;20197;-47
2023/05/26 10:51:57;;;;;;;11.52;4.03;;;;;;;14.10;62.56;102733.84;5009812;28;20488;-47
2023/05/26 10:54:24;;;;;;;14.95;4.05;;;;;;;13.97;62.62;102722.44;5008164;28;20199;-47
2023/05/26 10:56:54;;;;;;;17.75;4.50;;;;;;;14.39;62.00;102718.81;5009928;28;20227;-47
2023/05/26 10:59:36;;;;;;;12.98;4.10;;;;;;;14.61;60.12;102706.59;5009439;28;20169;-52
2023/05/26 11:02:04;;;;;;;12.85;3.95;;;;;;;15.44;59.72;102701.66;5010859;28;20239;-50
2023/05/26 11:04:44;;;;;;;13.50;4.05;;;;;;;15.13;59.24;102700.72;5013342;28;20207;-52
2023/05/26 11:07:20;;;;;;;13.27;4.03;;;;;;;14.03;60.24;102707.94;5013382;28;20204;-48
2023/05/26 11:10:05;;;;;;;15.05;3.67;;;;;;;14.09;62.28;102723.97;5012881;28;20717;-46
2023/05/26 11:12:32;;;;;;;10.93;3.58;;;;;;;14.48;62.31;102723.09;5013157;28;20536;-48
2023/05/26 11:14:58;;;;;;;13.80;4.05;;;;;;;14.82;61.94;102728.53;5012728;28;20241;-48
2023/05/26 11:17:24;;;;;;;13.90;3.75;;;;;;;15.77;61.36;102723.25;5013186;28;20226;-49
2023/05/26 11:19:55;;;;;;;17.08;4.20;;;;;;;15.02;59.72;102706.41;5012995;28;20176;-45
2023/05/26 11:22:21;;;;;;;12.35;4.50;;;;;;;14.93;59.85;102706.66;5012689;28;20222;-50